createdAt,value
2022-07-26T00:00:18.248Z,0.00
2022-07-26T00:01:18.406Z,0.00
2022-07-26T00:02:18.638Z,0.00
2022-07-26T00:03:18.267Z,0.00
2022-07-26T00:04:18.265Z,0.00
2022-07-26T00:05:18.274Z,0.00
2022-07-26T00:06:19.089Z,0.00
2022-07-26T00:07:18.276Z,0.00
2022-07-26T00:08:18.275Z,0.00
2022-07-26T00:09:18.280Z,0.00
2022-07-26T00:10:18.285Z,0.00
2022-07-26T00:11:18.289Z,0.00
2022-07-26T00:12:18.290Z,0.00
2022-07-26T00:13:18.297Z,0.00
2022-07-26T00:14:18.293Z,0.00
2022-07-26T00:15:18.296Z,0.00
2022-07-26T00:16:18.357Z,0.00
2022-07-26T00:17:18.304Z,0.00
2022-07-26T00:18:18.302Z,0.00
2022-07-26T00:19:18.311Z,0.00
2022-07-26T00:20:18.315Z,0.00
2022-07-26T00:21:18.319Z,0.00
2022-07-26T00:22:18.321Z,0.00
2022-07-26T00:23:18.324Z,0.00
2022-07-26T00:24:18.327Z,0.00
2022-07-26T00:25:18.331Z,0.00
2022-07-26T00:26:18.329Z,0.00
2022-07-26T00:27:18.339Z,0.00
2022-07-26T00:28:18.335Z,0.00
2022-07-26T00:29:18.347Z,0.00
2022-07-26T00:30:18.346Z,0.00
2022-07-26T00:31:18.413Z,0.00
2022-07-26T00:32:18.348Z,0.00
2022-07-26T00:33:18.356Z,0.00
2022-07-26T00:34:18.360Z,0.00
2022-07-26T00:35:18.365Z,0.00
2022-07-26T00:36:18.363Z,0.00
2022-07-26T00:37:20.663Z,0.00
2022-07-26T00:38:18.370Z,0.00
2022-07-26T00:39:18.375Z,0.00
2022-07-26T00:40:18.383Z,0.00
2022-07-26T00:41:18.384Z,0.00
2022-07-26T00:42:18.381Z,0.00
2022-07-26T00:43:18.383Z,0.00
2022-07-26T00:44:18.386Z,0.00
2022-07-26T00:45:18.403Z,0.00
2022-07-26T00:46:18.464Z,0.00
2022-07-26T00:47:18.395Z,0.00
2022-07-26T00:48:18.406Z,0.00
2022-07-26T00:49:18.515Z,0.00
2022-07-26T00:50:18.404Z,0.00
2022-07-26T00:51:18.416Z,0.00
2022-07-26T00:52:18.410Z,0.00
2022-07-26T00:53:18.417Z,0.00
2022-07-26T00:54:18.421Z,0.00
2022-07-26T00:55:18.428Z,0.00
2022-07-26T00:56:18.425Z,0.00
2022-07-26T00:57:18.427Z,0.00
2022-07-26T00:58:18.483Z,0.00
2022-07-26T00:59:18.433Z,0.00
2022-07-26T01:00:18.438Z,0.00
2022-07-26T01:01:18.500Z,0.00
2022-07-26T01:02:18.527Z,0.00
2022-07-26T01:03:18.443Z,0.00
2022-07-26T01:04:18.448Z,0.00
2022-07-26T01:05:18.452Z,0.00
2022-07-26T01:06:18.454Z,0.00
2022-07-26T01:07:18.459Z,0.00
2022-07-26T01:08:18.460Z,0.00
2022-07-26T01:09:18.461Z,0.00
2022-07-26T01:10:18.469Z,0.00
2022-07-26T01:11:18.469Z,0.00
2022-07-26T01:12:18.471Z,0.00
2022-07-26T01:13:18.478Z,0.00
2022-07-26T01:14:18.483Z,0.00
2022-07-26T01:15:18.484Z,0.00
2022-07-26T01:16:18.550Z,0.00
2022-07-26T01:17:18.488Z,0.00
2022-07-26T01:18:18.489Z,0.00
2022-07-26T01:19:18.490Z,0.00
2022-07-26T01:20:18.494Z,0.00
2022-07-26T01:21:18.495Z,0.00
2022-07-26T01:22:18.502Z,0.00
2022-07-26T01:23:18.503Z,0.00
2022-07-26T01:24:18.505Z,0.00
2022-07-26T01:25:18.511Z,0.00
2022-07-26T01:26:18.525Z,0.00
2022-07-26T01:27:18.517Z,0.00
2022-07-26T01:28:19.960Z,0.00
2022-07-26T01:29:18.529Z,0.00
2022-07-26T01:30:18.530Z,0.00
2022-07-26T01:31:18.577Z,0.00
2022-07-26T01:32:18.533Z,0.00
2022-07-26T01:33:18.542Z,0.00
2022-07-26T01:34:18.543Z,0.00
2022-07-26T01:35:18.544Z,0.00
2022-07-26T01:36:18.550Z,0.00
2022-07-26T01:37:18.547Z,0.00
2022-07-26T01:38:18.554Z,0.00
2022-07-26T01:39:18.557Z,0.00
2022-07-26T01:40:18.558Z,0.00
2022-07-26T01:41:18.559Z,0.00
2022-07-26T01:42:18.568Z,0.00
2022-07-26T01:43:18.566Z,0.00
2022-07-26T01:44:18.567Z,0.00
2022-07-26T01:45:18.572Z,0.00
2022-07-26T01:46:18.644Z,0.00
2022-07-26T01:47:18.578Z,0.00
2022-07-26T01:48:18.578Z,0.00
2022-07-26T01:49:18.687Z,0.00
2022-07-26T01:50:18.584Z,0.00
2022-07-26T01:51:18.592Z,0.00
2022-07-26T01:52:18.597Z,0.00
2022-07-26T01:53:18.594Z,0.00
2022-07-26T01:54:22.498Z,0.00
2022-07-26T01:55:18.613Z,0.00
2022-07-26T01:56:18.603Z,0.00
2022-07-26T01:57:18.607Z,0.00
2022-07-26T01:58:18.627Z,0.00
2022-07-26T01:59:18.614Z,0.00
2022-07-26T02:00:18.619Z,0.00
2022-07-26T02:01:39.073Z,0.00
2022-07-26T02:02:18.783Z,0.00
2022-07-26T02:03:18.720Z,0.00
2022-07-26T02:04:18.626Z,0.00
2022-07-26T02:05:18.630Z,0.00
2022-07-26T02:06:18.634Z,0.00
2022-07-26T02:07:18.636Z,0.00
2022-07-26T02:08:18.660Z,0.00
2022-07-26T02:09:18.646Z,0.00
2022-07-26T02:10:18.652Z,0.00
2022-07-26T02:11:18.648Z,0.00
2022-07-26T02:12:18.655Z,0.00
2022-07-26T02:13:18.657Z,0.00
2022-07-26T02:14:26.068Z,0.00
2022-07-26T02:15:18.661Z,0.00
2022-07-26T02:16:18.788Z,0.00
2022-07-26T02:17:18.665Z,0.00
2022-07-26T02:18:18.697Z,0.00
2022-07-26T02:19:18.690Z,0.00
2022-07-26T02:20:18.715Z,0.00
2022-07-26T02:21:18.702Z,0.00
2022-07-26T02:22:18.698Z,0.00
2022-07-26T02:23:18.685Z,0.00
2022-07-26T02:24:18.693Z,0.00
2022-07-26T02:25:18.701Z,0.00
2022-07-26T02:26:18.701Z,0.00
2022-07-26T02:27:18.701Z,0.00
2022-07-26T02:28:18.713Z,0.00
2022-07-26T02:29:18.702Z,0.00
2022-07-26T02:30:18.709Z,0.00
2022-07-26T02:31:18.807Z,0.00
2022-07-26T02:32:18.721Z,0.00
2022-07-26T02:33:18.717Z,0.00
2022-07-26T02:34:18.720Z,0.00
2022-07-26T02:35:18.718Z,0.00
2022-07-26T02:36:18.718Z,0.00
2022-07-26T02:37:18.723Z,0.00
2022-07-26T02:38:18.728Z,0.00
2022-07-26T02:39:18.729Z,0.00
2022-07-26T02:40:19.574Z,0.00
2022-07-26T02:41:18.735Z,0.00
2022-07-26T02:42:18.738Z,0.00
2022-07-26T02:43:18.739Z,0.00
2022-07-26T02:44:18.746Z,0.00
2022-07-26T02:45:18.747Z,0.00
2022-07-26T02:46:18.868Z,4.00
2022-07-26T02:47:18.751Z,4.00
2022-07-26T02:48:18.758Z,4.00
2022-07-26T02:49:18.825Z,0.00
2022-07-26T02:50:18.794Z,4.00
2022-07-26T02:51:18.771Z,4.00
2022-07-26T02:52:18.772Z,4.00
2022-07-26T02:53:18.771Z,8.00
2022-07-26T02:54:18.775Z,4.00
2022-07-26T02:55:18.776Z,4.00
2022-07-26T02:56:18.778Z,8.00
2022-07-26T02:57:18.786Z,8.00
2022-07-26T02:58:18.787Z,12.00
2022-07-26T02:59:18.787Z,12.00
2022-07-26T03:00:18.796Z,12.00
2022-07-26T03:01:18.865Z,12.00
2022-07-26T03:02:18.851Z,16.00
2022-07-26T03:03:18.845Z,16.00
2022-07-26T03:04:18.800Z,16.00
2022-07-26T03:05:18.815Z,20.00
2022-07-26T03:06:18.813Z,24.00
2022-07-26T03:07:18.813Z,24.00
2022-07-26T03:08:18.817Z,28.00
2022-07-26T03:09:18.815Z,28.00
2022-07-26T03:10:18.823Z,28.00
2022-07-26T03:11:18.821Z,36.00
2022-07-26T03:12:18.826Z,40.00
2022-07-26T03:13:18.829Z,40.00
2022-07-26T03:14:18.845Z,40.00
2022-07-26T03:15:18.833Z,48.00
2022-07-26T03:16:22.728Z,48.00
2022-07-26T03:17:18.834Z,56.00
2022-07-26T03:18:18.839Z,56.00
2022-07-26T03:19:18.843Z,56.00
2022-07-26T03:20:18.846Z,64.00
2022-07-26T03:21:18.850Z,64.00
2022-07-26T03:22:18.854Z,72.00
2022-07-26T03:23:18.853Z,76.00
2022-07-26T03:24:18.857Z,84.00
2022-07-26T03:25:18.861Z,92.00
2022-07-26T03:26:18.865Z,92.00
2022-07-26T03:27:18.869Z,100.00
2022-07-26T03:28:19.623Z,108.00
2022-07-26T03:29:18.869Z,120.00
2022-07-26T03:30:24.716Z,124.00
2022-07-26T03:31:18.943Z,132.00
2022-07-26T03:32:18.879Z,148.00
2022-07-26T03:33:18.884Z,160.00
2022-07-26T03:34:18.893Z,168.00
2022-07-26T03:35:18.893Z,180.00
2022-07-26T03:36:18.891Z,196.00
2022-07-26T03:37:18.896Z,212.00
2022-07-26T03:38:18.897Z,216.00
2022-07-26T03:39:18.900Z,208.00
2022-07-26T03:40:18.899Z,216.00
2022-07-26T03:41:18.904Z,224.00
2022-07-26T03:42:18.904Z,232.00
2022-07-26T03:43:22.821Z,256.00
2022-07-26T03:44:18.911Z,296.00
2022-07-26T03:45:18.917Z,344.00
2022-07-26T03:46:18.983Z,356.00
2022-07-26T03:47:18.924Z,332.00
2022-07-26T03:48:18.923Z,312.00
2022-07-26T03:49:19.022Z,288.00
2022-07-26T03:50:18.931Z,284.00
2022-07-26T03:51:18.934Z,308.00
2022-07-26T03:52:18.936Z,368.00
2022-07-26T03:53:18.936Z,444.00
2022-07-26T03:54:18.944Z,500.00
2022-07-26T03:55:18.943Z,516.00
2022-07-26T03:56:18.949Z,520.00
2022-07-26T03:57:18.942Z,504.00
2022-07-26T03:58:18.952Z,504.00
2022-07-26T03:59:18.955Z,516.00
2022-07-26T04:00:18.951Z,552.00
2022-07-26T04:01:19.049Z,580.00
2022-07-26T04:02:19.064Z,588.00
2022-07-26T04:03:18.965Z,580.00
2022-07-26T04:04:18.968Z,584.00
2022-07-26T04:05:23.365Z,588.00
2022-07-26T04:06:18.969Z,600.00
2022-07-26T04:07:18.985Z,636.00
2022-07-26T04:08:18.978Z,676.00
2022-07-26T04:09:18.977Z,708.00
2022-07-26T04:10:18.980Z,700.00
2022-07-26T04:11:18.986Z,724.00
2022-07-26T04:12:18.983Z,800.00
2022-07-26T04:13:18.986Z,800.00
2022-07-26T04:14:18.994Z,768.00
2022-07-26T04:15:19.200Z,816.00
2022-07-26T04:16:18.998Z,892.00
2022-07-26T04:17:19.110Z,888.00
2022-07-26T04:18:19.006Z,856.00
2022-07-26T04:19:19.008Z,824.00
2022-07-26T04:20:19.015Z,820.00
2022-07-26T04:21:19.011Z,788.00
2022-07-26T04:22:19.015Z,792.00
2022-07-26T04:23:19.015Z,860.00
2022-07-26T04:24:19.017Z,964.00
2022-07-26T04:25:19.022Z,1012.00
2022-07-26T04:26:19.029Z,1012.00
2022-07-26T04:27:19.025Z,972.00
2022-07-26T04:28:19.029Z,932.00
2022-07-26T04:29:19.032Z,916.00
2022-07-26T04:30:19.043Z,928.00
2022-07-26T04:31:19.092Z,944.00
2022-07-26T04:32:19.040Z,940.00
2022-07-26T04:33:19.044Z,968.00
2022-07-26T04:34:19.046Z,1036.00
2022-07-26T04:35:19.048Z,1060.00
2022-07-26T04:36:19.050Z,1100.00
2022-07-26T04:37:19.054Z,1152.00
2022-07-26T04:38:19.054Z,1132.00
2022-07-26T04:39:19.058Z,1152.00
2022-07-26T04:40:21.049Z,1204.00
2022-07-26T04:41:19.062Z,1296.00
2022-07-26T04:42:19.061Z,1312.00
2022-07-26T04:43:19.069Z,1356.00
2022-07-26T04:44:19.070Z,1416.00
2022-07-26T04:45:19.071Z,1432.00
2022-07-26T04:46:19.194Z,1412.00
2022-07-26T04:47:19.074Z,1444.00
2022-07-26T04:48:19.077Z,1488.00
2022-07-26T04:49:19.145Z,1544.00
2022-07-26T04:50:19.088Z,1564.00
2022-07-26T04:51:19.090Z,1572.00
2022-07-26T04:52:19.090Z,1604.00
2022-07-26T04:53:19.096Z,1676.00
2022-07-26T04:54:19.095Z,1760.00
2022-07-26T04:55:19.102Z,1740.00
2022-07-26T04:56:19.100Z,1628.00
2022-07-26T04:57:19.102Z,1556.00
2022-07-26T04:58:19.249Z,1552.00
2022-07-26T04:59:21.838Z,1660.00
2022-07-26T05:00:23.592Z,1788.00
2022-07-26T05:01:19.210Z,1816.00
2022-07-26T05:02:19.265Z,1824.00
2022-07-26T05:03:19.250Z,1904.00
2022-07-26T05:04:19.121Z,2040.00
2022-07-26T05:05:19.126Z,2120.00
2022-07-26T05:06:19.129Z,2064.00
2022-07-26T05:07:19.132Z,1992.00
2022-07-26T05:08:19.136Z,2024.00
2022-07-26T05:09:19.138Z,2048.00
2022-07-26T05:10:19.139Z,2000.00
2022-07-26T05:11:19.146Z,2108.00
2022-07-26T05:12:19.144Z,2140.00
2022-07-26T05:13:23.059Z,2088.00
2022-07-26T05:14:19.146Z,2056.00
2022-07-26T05:15:19.152Z,2012.00
2022-07-26T05:16:19.183Z,1976.00
2022-07-26T05:17:19.203Z,1884.00
2022-07-26T05:18:19.154Z,1820.00
2022-07-26T05:19:19.159Z,1792.00
2022-07-26T05:20:19.165Z,1688.00
2022-07-26T05:21:19.165Z,1596.00
2022-07-26T05:22:19.169Z,1660.00
2022-07-26T05:23:19.168Z,1876.00
2022-07-26T05:24:19.172Z,2088.00
2022-07-26T05:25:19.172Z,2148.00
2022-07-26T05:26:19.180Z,2016.00
2022-07-26T05:27:19.185Z,1896.00
2022-07-26T05:28:19.185Z,1908.00
2022-07-26T05:29:19.194Z,1968.00
2022-07-26T05:30:19.191Z,1984.00
2022-07-26T05:31:19.273Z,1932.00
2022-07-26T05:32:19.192Z,1916.00
2022-07-26T05:33:19.202Z,1984.00
2022-07-26T05:34:19.203Z,2116.00
2022-07-26T05:35:19.205Z,2076.00
2022-07-26T05:36:19.205Z,2128.00
2022-07-26T05:37:19.215Z,2200.00
2022-07-26T05:38:19.222Z,1952.00
2022-07-26T05:39:19.214Z,1728.00
2022-07-26T05:40:19.213Z,1772.00
2022-07-26T05:41:19.220Z,1912.00
2022-07-26T05:42:19.221Z,2084.00
2022-07-26T05:43:19.228Z,2064.00
2022-07-26T05:44:19.225Z,2128.00
2022-07-26T05:45:19.232Z,2176.00
2022-07-26T05:46:19.266Z,1988.00
2022-07-26T05:47:19.232Z,1976.00
2022-07-26T05:48:19.237Z,2008.00
2022-07-26T05:49:19.314Z,1944.00
2022-07-26T05:50:19.242Z,1860.00
2022-07-26T05:51:19.250Z,1896.00
2022-07-26T05:52:19.246Z,2224.00
2022-07-26T05:53:19.247Z,2424.00
2022-07-26T05:54:19.260Z,2400.00
2022-07-26T05:55:19.252Z,2484.00
2022-07-26T05:56:19.258Z,2348.00
2022-07-26T05:57:19.305Z,2064.00
2022-07-26T05:58:19.264Z,2084.00
2022-07-26T05:59:19.271Z,2212.00
2022-07-26T06:00:19.262Z,2176.00
2022-07-26T06:01:19.454Z,2260.00
2022-07-26T06:02:19.346Z,2628.00
2022-07-26T06:03:19.325Z,2888.00
2022-07-26T06:04:19.315Z,3640.00
2022-07-26T06:05:19.280Z,3780.00
2022-07-26T06:06:19.283Z,3480.00
2022-07-26T06:07:19.288Z,2868.00
2022-07-26T06:08:19.292Z,2712.00
2022-07-26T06:09:19.292Z,2848.00
2022-07-26T06:10:19.294Z,3216.00
2022-07-26T06:11:19.298Z,3372.00
2022-07-26T06:12:19.296Z,3004.00
2022-07-26T06:13:19.307Z,3580.00
2022-07-26T06:14:19.310Z,4232.00
2022-07-26T06:15:19.313Z,4656.00
2022-07-26T06:16:19.312Z,3988.00
2022-07-26T06:17:19.419Z,4680.00
2022-07-26T06:18:19.320Z,4500.00
2022-07-26T06:19:19.319Z,5064.00
2022-07-26T06:20:19.321Z,4972.00
2022-07-26T06:21:19.330Z,4568.00
2022-07-26T06:22:19.333Z,4024.00
2022-07-26T06:23:33.590Z,3788.00
2022-07-26T06:24:19.333Z,3708.00
2022-07-26T06:25:19.344Z,3512.00
2022-07-26T06:26:19.344Z,3236.00
2022-07-26T06:27:19.344Z,2960.00
2022-07-26T06:28:19.342Z,2948.00
2022-07-26T06:29:19.349Z,2984.00
2022-07-26T06:30:19.348Z,3048.00
2022-07-26T06:31:19.430Z,3240.00
2022-07-26T06:32:19.354Z,3520.00
2022-07-26T06:33:19.359Z,3696.00
2022-07-26T06:34:19.360Z,3616.00
2022-07-26T06:35:19.367Z,3664.00
2022-07-26T06:36:19.366Z,3712.00
2022-07-26T06:37:19.379Z,3620.00
2022-07-26T06:38:19.373Z,3200.00
2022-07-26T06:39:19.377Z,3616.00
2022-07-26T06:40:19.376Z,4156.00
2022-07-26T06:41:19.385Z,4456.00
2022-07-26T06:42:19.384Z,4572.00
2022-07-26T06:43:19.385Z,4476.00
2022-07-26T06:44:19.385Z,4596.00
2022-07-26T06:45:19.395Z,4700.00
2022-07-26T06:46:19.573Z,4532.00
2022-07-26T06:47:19.398Z,4276.00
2022-07-26T06:48:19.405Z,4112.00
2022-07-26T06:49:22.424Z,4244.00
2022-07-26T06:50:20.857Z,4484.00
2022-07-26T06:51:19.415Z,4444.00
2022-07-26T06:52:19.419Z,4276.00
2022-07-26T06:53:19.415Z,4120.00
2022-07-26T06:54:19.414Z,4136.00
2022-07-26T06:55:19.420Z,4224.00
2022-07-26T06:56:19.422Z,4312.00
2022-07-26T06:57:19.426Z,4168.00
2022-07-26T06:58:19.429Z,3696.00
2022-07-26T06:59:19.429Z,3832.00
2022-07-26T07:00:19.461Z,4748.00
2022-07-26T07:01:58.752Z,4324.00
2022-07-26T07:02:19.440Z,4888.00
2022-07-26T07:03:19.494Z,5572.00
2022-07-26T07:04:19.475Z,5196.00
2022-07-26T07:05:19.548Z,4712.00
2022-07-26T07:06:19.455Z,5928.00
2022-07-26T07:07:19.457Z,7796.00
2022-07-26T07:08:19.460Z,8176.00
2022-07-26T07:09:19.467Z,6212.00
2022-07-26T07:10:19.469Z,4432.00
2022-07-26T07:11:19.470Z,4668.00
2022-07-26T07:12:19.470Z,5780.00
2022-07-26T07:13:19.477Z,6528.00
2022-07-26T07:14:19.476Z,6488.00
2022-07-26T07:15:19.476Z,5980.00
2022-07-26T07:16:19.523Z,6104.00
2022-07-26T07:17:20.346Z,6992.00
2022-07-26T07:18:19.492Z,7468.00
2022-07-26T07:19:19.495Z,7480.00
2022-07-26T07:20:19.496Z,6740.00
2022-07-26T07:21:19.502Z,5856.00
2022-07-26T07:22:19.503Z,5816.00
2022-07-26T07:23:19.504Z,5856.00
2022-07-26T07:24:19.509Z,6864.00
2022-07-26T07:25:22.052Z,7240.00
2022-07-26T07:26:19.513Z,7552.00
2022-07-26T07:27:19.516Z,6592.00
2022-07-26T07:28:19.520Z,6088.00
2022-07-26T07:29:19.527Z,5408.00
2022-07-26T07:30:19.523Z,5804.00
2022-07-26T07:31:19.610Z,5600.00
2022-07-26T07:32:19.929Z,5524.00
2022-07-26T07:33:22.747Z,5996.00
2022-07-26T07:34:19.820Z,7608.00
2022-07-26T07:35:19.546Z,8784.00
2022-07-26T07:36:19.549Z,8640.00
2022-07-26T07:37:20.008Z,7228.00
2022-07-26T07:38:19.558Z,6320.00
2022-07-26T07:39:19.558Z,6308.00
2022-07-26T07:40:19.559Z,4696.00
2022-07-26T07:41:19.565Z,4020.00
2022-07-26T07:42:19.617Z,3636.00
2022-07-26T07:43:19.580Z,5108.00
2022-07-26T07:44:19.572Z,7256.00
2022-07-26T07:45:19.576Z,8376.00
2022-07-26T07:46:19.610Z,9288.00
2022-07-26T07:47:19.582Z,8368.00
2022-07-26T07:48:19.599Z,6908.00
2022-07-26T07:49:19.636Z,6264.00
2022-07-26T07:50:19.606Z,6968.00
2022-07-26T07:51:19.598Z,7132.00
2022-07-26T07:52:19.601Z,8604.00
2022-07-26T07:53:19.917Z,5668.00
2022-07-26T07:54:19.609Z,6956.00
2022-07-26T07:55:37.777Z,10908.00
2022-07-26T07:56:19.618Z,6272.00
2022-07-26T07:57:19.622Z,6252.00
2022-07-26T07:58:19.624Z,6728.00
2022-07-26T07:59:19.631Z,17504.00
2022-07-26T08:00:19.635Z,32224.00
2022-07-26T08:01:19.709Z,53952.00
2022-07-26T08:02:19.631Z,18880.00
2022-07-26T08:03:19.642Z,45600.00
2022-07-26T08:04:19.695Z,48352.00
2022-07-26T08:05:19.651Z,50336.00
2022-07-26T08:06:19.653Z,40576.00
2022-07-26T08:07:19.663Z,42336.00
2022-07-26T08:08:22.197Z,58816.00
2022-07-26T08:09:19.671Z,67520.00
2022-07-26T08:10:19.788Z,54656.00
2022-07-26T08:11:19.676Z,22624.00
2022-07-26T08:12:19.679Z,20480.00
2022-07-26T08:13:21.257Z,23616.00
2022-07-26T08:14:19.703Z,14972.00
2022-07-26T08:15:21.248Z,53536.00
2022-07-26T08:16:19.746Z,52736.00
2022-07-26T08:17:19.713Z,70656.00
2022-07-26T08:18:20.161Z,52192.00
2022-07-26T08:19:19.724Z,32096.00
2022-07-26T08:20:19.728Z,80608.00
2022-07-26T08:21:19.737Z,77280.00
2022-07-26T08:23:02.305Z,73152.00
2022-07-26T08:24:02.309Z,70208.00
2022-07-26T08:25:02.312Z,60768.00
2022-07-26T08:26:06.597Z,13412.00
2022-07-26T08:27:02.320Z,18432.00
2022-07-26T08:28:04.078Z,27072.00
2022-07-26T08:29:02.339Z,18624.00
2022-07-26T08:30:02.346Z,49440.00
2022-07-26T08:31:02.415Z,14036.00
2022-07-26T08:32:02.443Z,14384.00
2022-07-26T08:33:02.374Z,18528.00
2022-07-26T08:34:02.384Z,66208.00
2022-07-26T08:35:17.736Z,60416.00
2022-07-26T08:36:02.399Z,31072.00
2022-07-26T08:37:18.266Z,9008.00
2022-07-26T08:38:02.438Z,7472.00
2022-07-26T08:39:02.430Z,7100.00
2022-07-26T08:40:02.433Z,4412.00
2022-07-26T08:41:02.451Z,3108.00
2022-07-26T08:42:02.452Z,2372.00
2022-07-26T08:43:02.463Z,2396.00
2022-07-26T08:44:02.473Z,3600.00
2022-07-26T08:45:02.481Z,4572.00
2022-07-26T08:46:02.489Z,5096.00
2022-07-26T08:47:02.597Z,3980.00
2022-07-26T08:48:18.733Z,3204.00
2022-07-26T08:49:02.589Z,3508.00
2022-07-26T08:50:02.520Z,3172.00
2022-07-26T08:51:02.530Z,3480.00
2022-07-26T08:52:02.535Z,4860.00
2022-07-26T08:53:02.549Z,7228.00
2022-07-26T08:54:05.729Z,8992.00
2022-07-26T08:55:02.567Z,11512.00
2022-07-26T08:56:07.353Z,37600.00
2022-07-26T08:57:02.579Z,31392.00
2022-07-26T08:58:02.582Z,8644.00
2022-07-26T08:59:02.595Z,7588.00
2022-07-26T09:00:02.601Z,5808.00
2022-07-26T09:01:02.666Z,4752.00
2022-07-26T09:02:02.612Z,4788.00
2022-07-26T09:03:02.625Z,4368.00
2022-07-26T09:04:02.726Z,4144.00
2022-07-26T09:05:02.638Z,3516.00
2022-07-26T09:06:02.644Z,3528.00
2022-07-26T09:07:02.658Z,3708.00
2022-07-26T09:08:02.658Z,3712.00
2022-07-26T09:09:02.665Z,3508.00
2022-07-26T09:10:02.683Z,3316.00
2022-07-26T09:11:02.686Z,4540.00
2022-07-26T09:12:02.687Z,5704.00
2022-07-26T09:13:02.696Z,6212.00
2022-07-26T09:14:02.705Z,7624.00
2022-07-26T09:15:02.710Z,8940.00
2022-07-26T09:16:02.818Z,9996.00
2022-07-26T09:17:02.729Z,8000.00
2022-07-26T09:18:02.735Z,6844.00
2022-07-26T09:19:02.735Z,9332.00
2022-07-26T09:20:02.744Z,5576.00
2022-07-26T09:21:02.749Z,4748.00
2022-07-26T09:22:06.011Z,3836.00
2022-07-26T09:23:02.764Z,2980.00
2022-07-26T09:24:02.766Z,2296.00
2022-07-26T09:25:02.780Z,2220.00
2022-07-26T09:26:02.779Z,2680.00
2022-07-26T09:27:02.790Z,4556.00
2022-07-26T09:28:02.793Z,14444.00
2022-07-26T09:29:02.801Z,64800.00
2022-07-26T09:30:02.849Z,77856.00
2022-07-26T09:31:02.858Z,16692.00
2022-07-26T09:32:02.828Z,9992.00
2022-07-26T09:33:02.829Z,8476.00
2022-07-26T09:34:02.830Z,7028.00
2022-07-26T09:35:02.838Z,4832.00
2022-07-26T09:36:02.843Z,4516.00
2022-07-26T09:37:02.853Z,4888.00
2022-07-26T09:38:02.863Z,5628.00
2022-07-26T09:39:02.867Z,6900.00
2022-07-26T09:40:02.874Z,8852.00
2022-07-26T09:41:02.881Z,12252.00
2022-07-26T09:42:26.142Z,12348.00
2022-07-26T09:43:02.893Z,19424.00
2022-07-26T09:44:02.908Z,43648.00
2022-07-26T09:45:02.918Z,84448.00
2022-07-26T09:46:03.014Z,12900.00
2022-07-26T09:47:02.918Z,5800.00
2022-07-26T09:48:02.937Z,4852.00
2022-07-26T09:49:11.460Z,4264.00
2022-07-26T09:50:03.851Z,4088.00
2022-07-26T09:51:02.961Z,4092.00
2022-07-26T09:52:02.963Z,4076.00
2022-07-26T09:53:02.963Z,4116.00
2022-07-26T09:54:02.976Z,3944.00
2022-07-26T09:55:02.980Z,3492.00
2022-07-26T09:56:02.996Z,2756.00
2022-07-26T09:57:03.008Z,2516.00
2022-07-26T09:58:03.004Z,3568.00
2022-07-26T09:59:03.022Z,6344.00
2022-07-26T10:00:03.018Z,8344.00
2022-07-26T10:01:03.031Z,9588.00
2022-07-26T10:02:03.068Z,11352.00
2022-07-26T10:03:03.064Z,14328.00
2022-07-26T10:04:03.048Z,33152.00
2022-07-26T10:05:03.056Z,33280.00
2022-07-26T10:06:03.058Z,27200.00
2022-07-26T10:07:03.070Z,44416.00
2022-07-26T10:08:03.075Z,98880.00
2022-07-26T10:09:03.083Z,104992.00
2022-07-26T10:10:03.092Z,88576.00
2022-07-26T10:11:03.096Z,88896.00
2022-07-26T10:12:03.104Z,103520.00
2022-07-26T10:13:03.120Z,109056.00
2022-07-26T10:14:03.131Z,105088.00
2022-07-26T10:15:03.132Z,100544.00
2022-07-26T10:16:03.225Z,106880.00
2022-07-26T10:17:03.152Z,110912.00
2022-07-26T10:18:03.162Z,104608.00
2022-07-26T10:19:03.174Z,94240.00
2022-07-26T10:20:03.186Z,101984.00
2022-07-26T10:21:03.199Z,102208.00
2022-07-26T10:22:03.211Z,107776.00
2022-07-26T10:23:03.225Z,104832.00
2022-07-26T10:24:03.241Z,105152.00
2022-07-26T10:25:03.249Z,61248.00
2022-07-26T10:26:03.263Z,67648.00
2022-07-26T10:27:03.286Z,11108.00
2022-07-26T10:28:03.290Z,9988.00
2022-07-26T10:29:03.304Z,8908.00
2022-07-26T10:30:03.323Z,6836.00
2022-07-26T10:31:03.370Z,5896.00
2022-07-26T10:32:04.044Z,5240.00
2022-07-26T10:33:03.362Z,4852.00
2022-07-26T10:34:06.759Z,4608.00
2022-07-26T10:35:03.385Z,4432.00
2022-07-26T10:36:03.397Z,4208.00
2022-07-26T10:37:03.410Z,4148.00
2022-07-26T10:38:03.422Z,4036.00
2022-07-26T10:39:03.433Z,3604.00
2022-07-26T10:40:03.445Z,3348.00
2022-07-26T10:41:03.458Z,3680.00
2022-07-26T10:42:03.474Z,5220.00
2022-07-26T10:43:23.020Z,7100.00
2022-07-26T10:44:03.495Z,8820.00
2022-07-26T10:45:03.508Z,10728.00
2022-07-26T10:46:03.582Z,52192.00
2022-07-26T10:47:03.536Z,39584.00
2022-07-26T10:48:03.554Z,17824.00
2022-07-26T10:49:04.092Z,18912.00
2022-07-26T10:50:03.568Z,12936.00
2022-07-26T10:51:06.377Z,11464.00
2022-07-26T10:52:03.595Z,12024.00
2022-07-26T10:53:03.604Z,14196.00
2022-07-26T10:54:03.613Z,13248.00
2022-07-26T10:55:03.626Z,12432.00
2022-07-26T10:56:03.634Z,11240.00
2022-07-26T10:57:03.651Z,10084.00
2022-07-26T10:58:03.656Z,9084.00
2022-07-26T10:59:03.669Z,8132.00
2022-07-26T11:00:03.687Z,7284.00
2022-07-26T11:01:03.699Z,6612.00
2022-07-26T11:02:03.772Z,5952.00
2022-07-26T11:03:03.758Z,5312.00
2022-07-26T11:04:03.728Z,4916.00
2022-07-26T11:05:03.738Z,4584.00
2022-07-26T11:06:03.751Z,4640.00
2022-07-26T11:07:03.762Z,5192.00
2022-07-26T11:08:03.768Z,6512.00
2022-07-26T11:09:03.831Z,7604.00
2022-07-26T11:10:03.789Z,7536.00
2022-07-26T11:11:03.799Z,7524.00
2022-07-26T11:12:03.808Z,7524.00
2022-07-26T11:13:03.821Z,8012.00
2022-07-26T11:14:03.826Z,21408.00
2022-07-26T11:15:03.835Z,20416.00
2022-07-26T11:16:03.905Z,19808.00
2022-07-26T11:17:03.861Z,19264.00
2022-07-26T11:18:03.875Z,18848.00
2022-07-26T11:19:03.879Z,18464.00
2022-07-26T11:20:03.883Z,18208.00
2022-07-26T11:21:03.902Z,18080.00
2022-07-26T11:22:03.905Z,17952.00
2022-07-26T11:23:03.918Z,18016.00
2022-07-26T11:24:03.933Z,18464.00
2022-07-26T11:25:03.942Z,13860.00
2022-07-26T11:26:03.948Z,18880.00
2022-07-26T11:27:03.960Z,16928.00
2022-07-26T11:28:07.105Z,19264.00
2022-07-26T11:29:06.445Z,18336.00
2022-07-26T11:30:03.998Z,12408.00
2022-07-26T11:31:04.045Z,11720.00
2022-07-26T11:32:14.737Z,19392.00
2022-07-26T11:33:04.031Z,17696.00
2022-07-26T11:34:04.055Z,19456.00
2022-07-26T11:35:04.059Z,18816.00
2022-07-26T11:36:04.071Z,18592.00
2022-07-26T11:37:04.091Z,18624.00
2022-07-26T11:38:11.754Z,20352.00
2022-07-26T11:39:04.111Z,10320.00
2022-07-26T11:40:04.143Z,15396.00
2022-07-26T11:41:04.139Z,12212.00
2022-07-26T11:42:04.148Z,9084.00
2022-07-26T11:43:04.166Z,7708.00
2022-07-26T11:44:04.186Z,10196.00
2022-07-26T11:45:04.174Z,11860.00
2022-07-26T11:46:04.236Z,12528.00
2022-07-26T11:47:04.216Z,15532.00
2022-07-26T11:48:04.229Z,28448.00
2022-07-26T11:49:04.328Z,18336.00
2022-07-26T11:50:17.035Z,15972.00
2022-07-26T11:51:07.157Z,14608.00
2022-07-26T11:52:04.275Z,14444.00
2022-07-26T11:53:04.293Z,22688.00
2022-07-26T11:54:04.303Z,16960.00
2022-07-26T11:55:04.317Z,13904.00
2022-07-26T11:56:04.330Z,25120.00
2022-07-26T11:57:04.346Z,9832.00
2022-07-26T11:58:04.381Z,7764.00
2022-07-26T11:59:04.375Z,8876.00
2022-07-26T12:00:04.383Z,9448.00
2022-07-26T12:01:04.397Z,8628.00
2022-07-26T12:02:04.414Z,7876.00
2022-07-26T12:03:04.422Z,7128.00
2022-07-26T12:04:04.595Z,6160.00
2022-07-26T12:05:04.599Z,5588.00
2022-07-26T12:06:04.461Z,5084.00
2022-07-26T12:07:04.475Z,4572.00
2022-07-26T12:08:04.774Z,3740.00
2022-07-26T12:09:04.530Z,2992.00
2022-07-26T12:10:04.559Z,2548.00
2022-07-26T12:11:04.528Z,2172.00
2022-07-26T12:12:04.535Z,1860.00
2022-07-26T12:13:04.553Z,1684.00
2022-07-26T12:14:04.562Z,1540.00
2022-07-26T12:15:04.578Z,1460.00
2022-07-26T12:16:04.744Z,1440.00
2022-07-26T12:17:04.596Z,1484.00
2022-07-26T12:18:04.609Z,1580.00
2022-07-26T12:19:04.618Z,1552.00
2022-07-26T12:20:04.725Z,1392.00
2022-07-26T12:21:06.564Z,1216.00
2022-07-26T12:22:04.652Z,1152.00